createdAt,value
2018-06-09T00:02:09.599Z,32.10
2018-06-09T00:04:41.182Z,32.20
2018-06-09T00:07:13.826Z,32.10
2018-06-09T00:09:45.395Z,32.10
2018-06-09T00:12:17.263Z,32.10
2018-06-09T00:14:49.175Z,32.10
2018-06-09T00:17:21.442Z,32.10
2018-06-09T00:19:53.216Z,32.10
2018-06-09T00:22:24.683Z,32.10
2018-06-09T00:24:56.299Z,32.00
2018-06-09T00:27:28.212Z,32.00
2018-06-09T00:29:59.840Z,32.10
2018-06-09T00:32:31.543Z,32.10
2018-06-09T00:35:04.119Z,32.00
2018-06-09T00:37:35.656Z,31.90
2018-06-09T00:40:07.279Z,31.90
2018-06-09T00:42:39.323Z,31.90
2018-06-09T00:45:11.119Z,31.80
2018-06-09T00:47:42.762Z,31.70
2018-06-09T00:50:14.367Z,31.70
2018-06-09T00:52:46.344Z,31.70
2018-06-09T00:55:17.928Z,31.70
2018-06-09T01:00:20.633Z,31.70
2018-06-09T01:02:52.372Z,31.70
2018-06-09T01:05:24.542Z,31.70
2018-06-09T01:07:57.976Z,31.70
2018-06-09T01:10:29.599Z,31.60
2018-06-09T01:13:01.504Z,31.60
2018-06-09T01:15:32.939Z,31.60
2018-06-09T01:18:05.182Z,31.60
2018-06-09T01:20:37.686Z,31.60
2018-06-09T01:23:09.401Z,31.60
2018-06-09T01:25:41.168Z,31.50
2018-06-09T01:28:13.260Z,31.60
2018-06-09T01:30:44.810Z,31.60
2018-06-09T01:33:16.862Z,31.60
2018-06-09T01:35:48.629Z,31.60
2018-06-09T01:38:20.637Z,31.60
2018-06-09T01:40:52.079Z,31.60
2018-06-09T01:43:23.728Z,31.60
2018-06-09T01:45:55.288Z,31.60
2018-06-09T01:48:27.036Z,31.60
2018-06-09T01:53:29.643Z,31.60
2018-06-09T01:56:01.109Z,31.60
2018-06-09T01:58:32.906Z,31.70
2018-06-09T02:01:04.400Z,31.70
2018-06-09T02:03:36.210Z,31.80
2018-06-09T02:06:07.861Z,31.80
2018-06-09T02:08:41.358Z,31.80
2018-06-09T02:11:12.756Z,31.80
2018-06-09T02:16:15.229Z,31.90
2018-06-09T02:18:47.019Z,31.90
2018-06-09T02:21:18.672Z,32.00
2018-06-09T02:23:50.557Z,32.00
2018-06-09T02:26:21.970Z,32.10
2018-06-09T02:28:53.983Z,32.10
2018-06-09T02:31:25.737Z,32.10
2018-06-09T02:33:57.274Z,32.20
2018-06-09T02:36:28.935Z,32.20
2018-06-09T02:39:00.670Z,32.20
2018-06-09T02:41:32.365Z,32.20
2018-06-09T02:44:04.103Z,32.30
2018-06-09T02:46:35.732Z,32.30
2018-06-09T02:51:38.134Z,32.40
2018-06-09T02:54:10.160Z,32.40
2018-06-09T02:56:41.662Z,32.40
2018-06-09T03:01:44.219Z,32.40
2018-06-09T03:04:15.715Z,32.50
2018-06-09T03:09:19.377Z,32.80
2018-06-09T03:11:50.872Z,32.80
2018-06-09T03:14:22.757Z,32.80
2018-06-09T03:16:54.376Z,32.90
2018-06-09T03:19:26.355Z,32.80
2018-06-09T03:21:58.245Z,32.90
2018-06-09T03:27:02.039Z,32.90
2018-06-09T03:29:33.817Z,33.00
2018-06-09T03:32:05.482Z,33.00
2018-06-09T03:34:37.503Z,33.00
2018-06-09T03:37:09.362Z,33.10
2018-06-09T03:39:41.376Z,33.20
2018-06-09T03:42:12.858Z,33.30
2018-06-09T03:44:44.975Z,33.40
2018-06-09T03:47:16.510Z,33.40
2018-06-09T03:49:48.583Z,33.70
2018-06-09T03:52:20.486Z,34.00
2018-06-09T03:54:52.315Z,34.10
2018-06-09T03:57:23.882Z,34.20
2018-06-09T03:59:55.772Z,34.30
2018-06-09T04:02:27.552Z,34.50
2018-06-09T04:04:59.368Z,34.70
2018-06-09T04:07:30.764Z,34.90
2018-06-09T04:10:03.482Z,35.10
2018-06-09T04:12:35.297Z,35.20
2018-06-09T04:15:07.120Z,35.40
2018-06-09T04:17:38.820Z,35.60
2018-06-09T04:20:10.393Z,35.70
2018-06-09T04:22:41.839Z,35.50
2018-06-09T04:25:13.828Z,35.90
2018-06-09T04:27:45.552Z,36.20
2018-06-09T04:30:17.711Z,36.50
2018-06-09T04:32:49.244Z,36.60
2018-06-09T04:35:20.911Z,36.60
2018-06-09T04:37:52.562Z,36.80
2018-06-09T04:42:55.145Z,37.30
2018-06-09T04:45:26.655Z,37.80
2018-06-09T04:47:58.217Z,38.20
2018-06-09T04:50:29.566Z,38.90
2018-06-09T04:53:00.887Z,39.70
2018-06-09T04:55:32.504Z,40.50
2018-06-09T04:58:03.681Z,41.20
2018-06-09T05:00:35.123Z,41.60
2018-06-09T05:03:06.455Z,42.10
2018-06-09T05:05:37.763Z,42.70
2018-06-09T05:08:09.102Z,42.60
2018-06-09T05:10:41.965Z,42.10
2018-06-09T05:13:13.755Z,41.70
2018-06-09T05:15:46.060Z,41.80
2018-06-09T05:18:17.605Z,41.10
2018-06-09T05:20:49.389Z,41.40
2018-06-09T05:23:21.195Z,41.70
2018-06-09T05:25:53.379Z,42.50
2018-06-09T05:28:25.179Z,43.30
2018-06-09T05:30:56.885Z,43.30
2018-06-09T05:33:28.491Z,43.70
2018-06-09T05:36:00.393Z,44.20
2018-06-09T05:38:32.231Z,44.70
2018-06-09T05:41:03.990Z,44.60
2018-06-09T05:43:35.410Z,44.60
2018-06-09T05:46:07.563Z,44.10
2018-06-09T05:48:39.261Z,43.60
2018-06-09T05:51:11.178Z,43.40
2018-06-09T05:53:42.890Z,43.40
2018-06-09T05:56:14.467Z,43.20
2018-06-09T05:58:46.188Z,43.10
2018-06-09T06:01:18.152Z,43.00
2018-06-09T06:03:50.159Z,42.90
2018-06-09T06:06:22.237Z,43.10
2018-06-09T06:08:53.675Z,43.30
2018-06-09T06:11:27.217Z,43.90
2018-06-09T06:16:29.909Z,44.70
2018-06-09T06:29:29.040Z,46.10
2018-06-09T06:32:00.708Z,46.20
2018-06-09T06:34:32.757Z,45.90
2018-06-09T06:37:04.477Z,45.50
2018-06-09T06:39:36.142Z,44.90
2018-06-09T06:44:38.912Z,44.70
2018-06-09T06:47:11.033Z,44.80
2018-06-09T06:49:42.806Z,44.60
2018-06-09T06:52:14.496Z,44.30
2018-06-09T06:54:46.104Z,44.20
2018-06-09T06:57:17.642Z,44.00
2018-06-09T07:02:20.293Z,44.10
2018-06-09T07:04:52.438Z,44.10
2018-06-09T07:07:24.020Z,44.30
2018-06-09T07:09:56.219Z,44.20
2018-06-09T07:12:28.839Z,44.30
2018-06-09T07:15:01.276Z,45.00
2018-06-09T07:17:32.813Z,45.40
2018-06-09T07:20:04.907Z,45.70
2018-06-09T07:25:07.350Z,46.40
2018-06-09T07:27:39.281Z,46.40
2018-06-09T07:30:11.188Z,46.50
2018-06-09T07:32:43.022Z,46.50
2018-06-09T07:35:14.800Z,46.40
2018-06-09T07:37:46.414Z,46.60
2018-06-09T07:42:49.168Z,45.40
2018-06-09T07:45:20.995Z,45.20
2018-06-09T07:47:52.386Z,44.30
2018-06-09T07:50:24.259Z,43.90
2018-06-09T07:52:56.063Z,43.50
2018-06-09T07:55:28.605Z,43.20
2018-06-09T07:58:00.108Z,42.90
2018-06-09T08:00:32.018Z,42.80
2018-06-09T08:03:03.567Z,42.60
2018-06-09T08:05:35.490Z,42.70
2018-06-09T08:08:07.103Z,42.70
2018-06-09T08:10:47.779Z,42.70
2018-06-09T08:13:22.499Z,42.80
2018-06-09T08:15:55.178Z,42.80
2018-06-09T08:18:26.890Z,42.70
2018-06-09T08:20:58.760Z,42.80
2018-06-09T08:23:30.160Z,42.90
2018-06-09T08:28:47.967Z,42.80
2018-06-09T08:31:19.604Z,42.80
2018-06-09T08:33:51.118Z,42.70
2018-06-09T08:36:22.867Z,42.70
2018-06-09T08:38:54.340Z,42.50
2018-06-09T08:41:27.115Z,42.40
2018-06-09T08:43:59.005Z,42.40
2018-06-09T08:46:31.316Z,42.50
2018-06-09T08:49:03.021Z,42.60
2018-06-09T08:51:34.682Z,42.60
2018-06-09T08:54:06.313Z,42.50
2018-06-09T08:56:38.213Z,42.60
2018-06-09T08:59:11.099Z,42.30
2018-06-09T09:01:43.123Z,42.00
2018-06-09T09:04:14.673Z,41.80
2018-06-09T09:06:47.033Z,41.70
2018-06-09T09:09:18.890Z,41.70
2018-06-09T09:11:51.797Z,41.80
2018-06-09T09:14:24.972Z,41.80
2018-06-09T09:16:57.005Z,41.70
2018-06-09T09:19:29.432Z,41.60
2018-06-09T09:22:01.788Z,41.60
2018-06-09T09:24:33.571Z,41.40
2018-06-09T09:27:05.505Z,41.40
2018-06-09T09:29:37.158Z,41.30
2018-06-09T09:32:11.267Z,41.10
2018-06-09T09:34:43.064Z,41.00
2018-06-09T09:37:15.013Z,41.00
2018-06-09T09:39:46.819Z,40.90
2018-06-09T09:42:18.965Z,40.80
2018-06-09T09:44:50.332Z,40.70
2018-06-09T09:47:22.732Z,40.60
2018-06-09T09:49:54.399Z,40.60
2018-06-09T09:52:26.284Z,40.60
2018-06-09T09:54:58.006Z,40.60
2018-06-09T09:57:29.707Z,40.50
2018-06-09T10:00:01.180Z,40.50
2018-06-09T10:02:33.121Z,40.30
2018-06-09T10:05:04.997Z,40.40
2018-06-09T10:07:36.924Z,40.50
2018-06-09T10:10:08.541Z,40.60
2018-06-09T10:12:40.535Z,40.40
2018-06-09T10:15:13.995Z,40.20
2018-06-09T10:20:16.782Z,40.00
2018-06-09T10:22:48.942Z,40.00
2018-06-09T10:25:20.777Z,40.00
2018-06-09T10:27:52.887Z,40.10
2018-06-09T10:30:24.500Z,40.10
2018-06-09T10:32:56.189Z,39.80
2018-06-09T10:35:27.962Z,39.70
2018-06-09T10:37:59.821Z,39.70
2018-06-09T10:40:31.648Z,39.70
2018-06-09T10:43:03.719Z,39.90
2018-06-09T10:45:35.936Z,40.10
2018-06-09T10:50:39.337Z,40.20
2018-06-09T10:55:47.355Z,40.10
2018-06-09T10:58:19.926Z,40.10
2018-06-09T11:00:51.703Z,40.10
2018-06-09T11:03:23.409Z,40.10
2018-06-09T11:05:54.861Z,40.10
2018-06-09T11:08:26.504Z,39.90
2018-06-09T11:10:58.272Z,39.60
2018-06-09T11:16:01.079Z,39.40
2018-06-09T11:18:33.337Z,39.40
2018-06-09T11:21:05.271Z,39.20
2018-06-09T11:23:37.598Z,39.30
2018-06-09T11:26:09.079Z,39.20
2018-06-09T11:28:43.141Z,39.00
2018-06-09T11:31:15.153Z,39.00
2018-06-09T11:33:47.019Z,39.00
2018-06-09T11:36:18.716Z,39.10
2018-06-09T11:38:50.942Z,39.10
2018-06-09T11:41:22.789Z,39.20
2018-06-09T11:43:55.374Z,39.10
2018-06-09T11:51:29.033Z,39.20
2018-06-09T11:54:06.877Z,39.30
2018-06-09T11:56:38.673Z,39.30
2018-06-09T11:59:10.779Z,39.20
2018-06-09T12:01:42.451Z,39.10
2018-06-09T12:04:14.249Z,39.00
2018-06-09T12:06:45.823Z,38.90
2018-06-09T12:09:18.094Z,38.70
2018-06-09T12:11:49.673Z,38.60
2018-06-09T12:14:21.923Z,38.70
2018-06-09T12:16:54.644Z,38.80
2018-06-09T12:19:27.719Z,38.70
2018-06-09T12:21:59.257Z,38.70
2018-06-09T12:27:01.486Z,38.60
2018-06-09T12:29:34.468Z,38.60
2018-06-09T12:32:06.071Z,38.70
2018-06-09T12:34:37.620Z,38.70
2018-06-09T12:37:09.328Z,38.70
2018-06-09T12:39:41.560Z,38.50
2018-06-09T12:42:13.606Z,38.40
2018-06-09T12:49:47.898Z,38.40
2018-06-09T12:52:20.160Z,38.30
2018-06-09T12:54:52.113Z,38.20
2018-06-09T12:57:23.724Z,38.20
2018-06-09T12:59:55.295Z,38.20
2018-06-09T13:02:27.025Z,38.00
2018-06-09T13:04:58.853Z,38.00
2018-06-09T13:07:30.314Z,37.90
2018-06-09T13:10:01.979Z,37.90
2018-06-09T13:12:33.699Z,37.80
2018-06-09T13:15:05.618Z,37.70
2018-06-09T13:17:38.426Z,37.70
2018-06-09T13:20:10.811Z,37.70
2018-06-09T13:22:42.701Z,37.60
2018-06-09T13:25:14.610Z,37.50
2018-06-09T13:27:46.479Z,37.50
2018-06-09T13:30:18.205Z,37.40
2018-06-09T13:35:21.501Z,37.40
2018-06-09T13:37:53.069Z,37.50
2018-06-09T13:42:55.856Z,37.50
2018-06-09T13:45:27.633Z,37.50
2018-06-09T13:50:30.620Z,37.50
2018-06-09T13:53:02.289Z,37.40
2018-06-09T13:55:34.429Z,37.40
2018-06-09T13:58:05.964Z,37.20
2018-06-09T14:00:38.120Z,37.30
2018-06-09T14:03:09.848Z,37.20
2018-06-09T14:10:43.746Z,36.90
2018-06-09T14:13:15.533Z,36.90
2018-06-09T14:15:48.110Z,36.80
2018-06-09T14:18:21.550Z,36.80
2018-06-09T14:20:55.698Z,36.70
2018-06-09T14:23:27.210Z,36.70
2018-06-09T14:25:59.159Z,36.60
2018-06-09T14:28:30.665Z,36.60
2018-06-09T14:31:05.083Z,36.60
2018-06-09T14:33:37.615Z,36.50
2018-06-09T14:38:39.906Z,36.30
2018-06-09T14:41:12.306Z,36.20
2018-06-09T14:43:43.974Z,36.20
2018-06-09T14:46:16.334Z,36.10
2018-06-09T14:48:47.698Z,36.00
2018-06-09T14:51:19.533Z,36.00
2018-06-09T14:56:22.427Z,35.90
2018-06-09T14:58:54.219Z,35.80
2018-06-09T15:01:25.957Z,35.80
2018-06-09T15:03:57.381Z,35.80
2018-06-09T15:06:29.392Z,35.70
2018-06-09T15:09:00.857Z,35.70
2018-06-09T15:11:32.747Z,35.70
2018-06-09T15:14:04.316Z,35.60
2018-06-09T15:16:36.914Z,35.50
2018-06-09T15:19:09.137Z,35.50
2018-06-09T15:21:41.611Z,35.40
2018-06-09T15:24:14.462Z,35.40
2018-06-09T15:26:46.357Z,35.40
2018-06-09T15:29:20.302Z,35.30
2018-06-09T15:31:52.667Z,35.30
2018-06-09T15:34:24.269Z,35.40
2018-06-09T15:36:56.325Z,35.30
2018-06-09T15:39:27.914Z,35.20
2018-06-09T15:41:59.993Z,35.20
2018-06-09T15:44:32.496Z,35.20
2018-06-09T15:47:05.832Z,35.20
2018-06-09T15:49:39.182Z,35.20
2018-06-09T15:52:11.249Z,35.20
2018-06-09T15:54:42.778Z,35.20
2018-06-09T15:57:15.271Z,35.10
2018-06-09T15:59:48.259Z,35.10
2018-06-09T16:04:51.204Z,35.10
2018-06-09T16:07:22.710Z,35.10
2018-06-09T16:09:54.130Z,35.10
2018-06-09T16:12:26.127Z,35.10
2018-06-09T16:14:58.210Z,35.00
2018-06-09T16:17:30.058Z,35.10
2018-06-09T16:20:03.035Z,35.00
2018-06-09T16:22:34.721Z,35.00
2018-06-09T16:25:08.032Z,35.00
2018-06-09T16:27:39.839Z,34.90
2018-06-09T16:30:11.446Z,35.00
2018-06-09T16:35:26.751Z,34.90
2018-06-09T16:37:58.516Z,34.90
2018-06-09T16:40:30.242Z,34.90
2018-06-09T16:43:02.214Z,34.90
2018-06-09T16:48:05.320Z,34.90
2018-06-09T16:50:38.282Z,34.90
2018-06-09T16:53:09.932Z,34.90
2018-06-09T16:55:42.034Z,34.80
2018-06-09T17:00:45.091Z,34.80
2018-06-09T17:03:17.241Z,34.80
2018-06-09T17:05:48.977Z,34.80
2018-06-09T17:10:52.549Z,34.80
2018-06-09T17:13:25.056Z,34.70
2018-06-09T17:15:56.758Z,34.80
2018-06-09T17:18:28.828Z,34.80
2018-06-09T17:21:01.555Z,34.80
2018-06-09T17:23:33.184Z,34.80
2018-06-09T17:26:04.728Z,34.80
2018-06-09T17:28:37.009Z,34.80
2018-06-09T17:31:10.037Z,34.80
2018-06-09T17:33:42.100Z,34.80
2018-06-09T17:38:45.050Z,34.80
2018-06-09T17:41:16.618Z,34.80
2018-06-09T17:43:49.071Z,34.80
2018-06-09T17:46:20.754Z,34.80
2018-06-09T17:48:52.676Z,34.90
2018-06-09T17:51:24.428Z,34.90
2018-06-09T17:53:56.454Z,34.80
2018-06-09T17:56:28.420Z,34.90
2018-06-09T17:59:00.445Z,34.80
2018-06-09T18:01:32.461Z,34.90
2018-06-09T18:04:06.178Z,34.90
2018-06-09T18:09:09.729Z,34.80
2018-06-09T18:11:41.152Z,34.80
2018-06-09T18:14:13.117Z,34.80
2018-06-09T18:16:44.781Z,34.90
2018-06-09T18:19:16.585Z,34.80
2018-06-09T18:21:49.037Z,34.80
2018-06-09T18:24:21.148Z,34.80
2018-06-09T18:26:52.814Z,34.80
2018-06-09T18:29:24.801Z,34.80
2018-06-09T18:31:56.412Z,34.80
2018-06-09T18:34:28.218Z,34.70
2018-06-09T18:37:00.184Z,34.70
2018-06-09T18:39:32.071Z,34.70
2018-06-09T18:42:03.753Z,34.70
2018-06-09T18:44:36.280Z,34.70
2018-06-09T18:47:07.682Z,34.70
2018-06-09T18:49:40.006Z,34.60
2018-06-09T18:52:11.543Z,34.60
2018-06-09T18:54:43.414Z,34.70
2018-06-09T18:57:15.118Z,34.70
2018-06-09T18:59:46.757Z,34.60
2018-06-09T19:02:18.421Z,34.60
2018-06-09T19:04:50.484Z,34.50
2018-06-09T19:09:53.515Z,34.40
2018-06-09T19:12:24.925Z,34.40
2018-06-09T19:14:56.823Z,34.30
2018-06-09T19:17:28.240Z,34.40
2018-06-09T19:20:00.272Z,34.40
2018-06-09T19:22:32.790Z,34.30
2018-06-09T19:27:35.273Z,34.40
2018-06-09T19:30:06.983Z,34.30
2018-06-09T19:32:38.450Z,34.30
2018-06-09T19:35:10.396Z,34.20
2018-06-09T19:37:42.306Z,34.20
2018-06-09T19:40:14.236Z,34.10
2018-06-09T19:42:46.069Z,34.20
2018-06-09T19:45:17.855Z,34.10
2018-06-09T19:47:49.222Z,34.10
2018-06-09T19:50:20.941Z,34.00
2018-06-09T19:52:52.466Z,34.00
2018-06-09T19:55:24.310Z,33.90
2018-06-09T19:57:56.032Z,33.90
2018-06-09T20:00:27.734Z,33.90
2018-06-09T20:02:59.217Z,33.80
2018-06-09T20:08:01.333Z,33.70
2018-06-09T20:10:33.180Z,33.70
2018-06-09T20:13:04.800Z,33.70
2018-06-09T20:15:36.544Z,33.70
2018-06-09T20:18:08.251Z,33.70
2018-06-09T20:20:40.711Z,33.70
2018-06-09T20:23:13.459Z,33.60
2018-06-09T20:25:45.268Z,33.70
2018-06-09T20:28:17.185Z,33.60
2018-06-09T20:30:49.299Z,33.60
2018-06-09T20:33:21.125Z,33.50
2018-06-09T20:35:52.662Z,33.50
2018-06-09T20:38:24.273Z,33.40
2018-06-09T20:40:56.088Z,33.40
2018-06-09T20:43:27.805Z,33.40
2018-06-09T20:46:00.663Z,33.30
2018-06-09T20:48:32.544Z,33.20
2018-06-09T20:51:04.955Z,33.20
2018-06-09T20:53:36.452Z,33.10
2018-06-09T20:56:08.222Z,33.10
2018-06-09T20:58:40.439Z,33.10
2018-06-09T21:01:12.176Z,33.10
2018-06-09T21:03:43.863Z,33.10
2018-06-09T21:06:16.214Z,33.00
2018-06-09T21:18:52.316Z,32.90
2018-06-09T21:21:23.995Z,32.80
2018-06-09T21:23:56.291Z,32.70
2018-06-09T21:26:32.997Z,32.80
2018-06-09T21:29:09.138Z,32.70
2018-06-09T21:31:46.297Z,32.70
2018-06-09T21:34:34.602Z,32.60
2018-06-09T21:37:12.490Z,32.60
2018-06-09T21:39:49.034Z,32.50
2018-06-09T21:42:25.294Z,32.50
2018-06-09T21:45:04.339Z,32.50
2018-06-09T21:47:36.391Z,32.40
2018-06-09T21:50:07.913Z,32.40
2018-06-09T21:52:39.573Z,32.40
2018-06-09T21:55:10.953Z,32.30
2018-06-09T21:57:42.912Z,32.30
2018-06-09T22:00:14.924Z,32.30
2018-06-09T22:02:46.631Z,32.30
2018-06-09T22:05:18.225Z,32.20
2018-06-09T22:07:50.132Z,32.30
2018-06-09T22:10:22.035Z,32.30
2018-06-09T22:15:24.576Z,32.30
2018-06-09T22:17:56.477Z,32.30
2018-06-09T22:20:28.036Z,32.30
2018-06-09T22:23:00.203Z,32.30
2018-06-09T22:25:37.715Z,32.20
2018-06-09T22:28:09.612Z,32.20
2018-06-09T22:30:40.949Z,32.20
2018-06-09T22:35:43.436Z,32.10
2018-06-09T22:38:15.367Z,32.10
2018-06-09T22:40:46.770Z,32.10
2018-06-09T22:43:18.743Z,32.10
2018-06-09T22:45:50.339Z,32.00
2018-06-09T22:48:22.294Z,32.10
2018-06-09T22:50:54.000Z,32.00
2018-06-09T22:53:25.647Z,32.10
2018-06-09T22:55:57.281Z,32.00
2018-06-09T22:58:29.077Z,32.00
2018-06-09T23:01:00.612Z,32.00
2018-06-09T23:03:32.633Z,32.00
2018-06-09T23:06:04.260Z,32.00
2018-06-09T23:08:36.211Z,31.90
2018-06-09T23:11:07.645Z,31.90
2018-06-09T23:13:39.712Z,31.90
2018-06-09T23:16:11.145Z,31.80
2018-06-09T23:18:42.732Z,31.80
2018-06-09T23:26:17.503Z,31.70
2018-06-09T23:28:49.363Z,31.70
2018-06-09T23:31:20.780Z,31.70
2018-06-09T23:33:52.313Z,31.70
2018-06-09T23:36:23.910Z,31.70
2018-06-09T23:38:55.945Z,31.60
2018-06-09T23:41:27.630Z,31.60
2018-06-09T23:43:59.435Z,31.60
2018-06-09T23:46:30.980Z,31.60
2018-06-09T23:49:02.676Z,31.50
2018-06-09T23:51:34.745Z,31.50
2018-06-09T23:56:37.230Z,31.50
2018-06-09T23:59:09.073Z,31.50
